UMMSUMGG

Guest
Details From UMMS - Minsk Velikiydvor
To UMGG - Gomel
Flight Number -
Tags Generated
Created
Modified
Stats Distance 135 nm / 250 km
Max Altitude 0 ft / 0 m
Waypoints 2
Social Downloads 8
Likes 0
Share VATSIM

Download

Looking for another format? Having issues loading an existing format? Contact us
Advertisement - Login to hide

Notes

Generated

Route

UMMS UMGG

ID Type Via Altitude Latitude Longitude Leg Dist Tot Dist Heading (true) Name
O UMMS APT - 0 ft / 0 m 53.89487˚ 28.01253˚ - 0 nm - -
O UMGG APT - 0 ft / 0 m 52.53112˚ 30.99878˚ 135 nm 135 nm 126° / 129° -

Altitude Profile

Advertisement - Login to hide

UMMS

Details ICAO UMMS (MSQ)
Name Minsk Velikiydvor
Region Belarus and Russia (Kaliningrad Oblast)
Timezone Europe/Minsk (UTC+3.0)
Stats Elevation 669 ft / 204 m (AMSL)
Location 53.882550° 28.030786°
Runways 1
Magnetic Variation 8.066° E

METAR

UMMS 230930Z 20003MPS 140V260 9999 SCT038 BKN066 21/13 Q1021 R13/D NOSIG

Decode

TAF

TAF UMMS 230505Z 2306/2406 17005MPS 8000 BKN020 TEMPO 2306/2319 24009G14MPS 1200 TSRA SCT006 BKN015CB BECMG 2319/2320 32006MPS 5000 BR BKN010 TEMPO 2320/2406 1200 BCFG BR BKN003

Decode

Departure Runways

ID Width Length Bearing (true) Bearing (mag) Surface Threshold Offset Overrun Length
13 197 ft / 60 m 11,938 ft / 3,639 m 138.85° 130.78° Concrete 0 ft / 0 m 0 ft / 0 m
31 197 ft / 60 m 11,938 ft / 3,639 m 318.88° 310.81° Concrete 0 ft / 0 m 0 ft / 0 m

UMGG

Details ICAO UMGG (GME)
Name Gomel
Region Belarus and Russia (Kaliningrad Oblast)
Timezone Europe/Minsk (UTC+3.0)
Stats Elevation 472 ft / 144 m (AMSL)
Location 52.527026° 31.016471°
Runways 1
Magnetic Variation 8.388° E

METAR

UMGG 230930Z 14004MPS CAVOK 23/11 Q1024 R10/D NOSIG

Decode

TAF

TAF UMGG 230500Z 2306/2406 14006MPS 9999 BKN015 TX25/2311Z TN11/2402Z TEMPO 2308/2318 2000 SHRA BKN005 BKN015CB TEMPO 2318/2406 1200 BR BKN004

Decode

Destination Runways

ID Width Length Bearing (true) Bearing (mag) Surface Threshold Offset Overrun Length
11 141 ft / 43 m 8,405 ft / 2,562 m 110.82° 102.43° Asphalt 0 ft / 0 m 164 ft / 50 m
29 141 ft / 43 m 8,405 ft / 2,562 m 290.85° 282.46° Asphalt 0 ft / 0 m 164 ft / 50 m

Approach Navaids

Runway Type Ident Frequency Range Bearing (true) Bearing (mag) Slope Elevation
11 Localiser IGM 109.30 MHz 18 nm / 33 km 110.82° 102.43° - 471 ft / 144 m (AMSL)
11 Glidescope IGM 109.30 MHz 10 nm / 19 km 109.18° 100.79° 2.70° 471 ft / 144 m (AMSL)
29 Localiser IMV 108.70 MHz 18 nm / 33 km 290.82° 282.43° - 471 ft / 144 m (AMSL)
29 Glidescope IMV 108.70 MHz 10 nm / 19 km 290.82° 282.43° 2.70° 471 ft / 144 m (AMSL)

Popular Alternatives